Modesto, CA

5:21 AM PST on January 30, 2015 (GMT -0800)
Enslen School | Change Station
CLOSE
Current Station
Personal Weather Station
Location: Modesto, CA
Elevation: 75 ft
Nearby Weather Stations

Elev 75 ft 37.66 °N, 121.00 °W | Updated 25 seconds ago

Fog
Fog
40.8 °F
Feels Like 41 °F
N
0.0
Wind Variable Wind from NE
Gusts 0.0 mph

Today
High -- | Low -- °F
--% Chance of Precip.
Yesterday
High -- | Low -- °F
Precip. -- in
7:09 AM 5:25 PM
Waxing Gibbous, 82% visible
Pressure 30.01 in
Visibility 0.2 miles
Clouds
Windchill 41 °F
Dew Point 41 °F
Humidity 99%
Rainfall 0.00 in
Snow Depth Not available.
UV 0.0 out of 12
Pollen 7.30 out of 12
Air Quality Not available.
Flu Activity Not available.
METAR KMOD 301253Z AUTO 12003KT 1/4SM FG VV001 04/04 A3001 RMK AO2 SLP163 T00440039

More Conditions Fewer Conditions

Pressure 30.01 in
Visibility 0.2 miles
Clouds
Windchill 41 °F
Dew Point 41 °F
Humidity 99%
Rainfall 0.00 in
Snow Depth Not available.
UV 0.0 out of 12
Pollen 7.30 out of 12
Air Quality Not available.
Flu Activity Not available.
METAR KMOD 301253Z AUTO 12003KT 1/4SM FG VV001 04/04 A3001 RMK AO2 SLP163 T00440039

More Conditions Fewer Conditions

Nowcast | as of 5:07 am PST on January 30, 2015

Fog has formed again this morning in the northern San Joaquin Valley and in parts of the Delta and southern Sacramento Valley. Visibility has been reported at around one quarter mile in Stockton and Modesto and could become locally lower in some areas. Be watchful while driving this morning especially in the northern San Joaquin Valley. Slow down and use caution when entering areas of denser fog.

×

10-Day Weather Forecast

Almanac

Astronomy

Jan. 30, 2015 Rise Set
Actual Time
Civil Twilight
Nautical Twilight
Astronomical Twilight
Moon
Length of Visible Light
Length of Day
Tomorrow will be .
, % of the Moon is Illuminated

Today's Extremes

State Highs State Lows

Community

WunderPhotos

Upload Photos

1,791,749 photos uploaded!

WunderBlogs® & News

Nearby

Air Quality

  Air Quality AQ Index Pollutant
Not available.

Snow Depth

Station Depth Elevation

Earthquake Activity

City Distance Mag. Time & Date
Minimum magnitude displayed is 2.5.

Coastal Water Temperatures

Place Temperature

Nearby Weather Stations